sensor_id;sensor_type;location;lat;lon;timestamp;pressure;altitude;pressure_sealevel;temperature
69007;BMP180;56061;51.748;19.620;2022-07-23T00:00:18;98996.20;;;19.20
69007;BMP180;56061;51.748;19.620;2022-07-23T00:02:45;98997.40;;;19.20
69007;BMP180;56061;51.748;19.620;2022-07-23T00:05:12;98999.40;;;19.20
69007;BMP180;56061;51.748;19.620;2022-07-23T00:07:39;98999.00;;;19.10
69007;BMP180;56061;51.748;19.620;2022-07-23T00:10:07;98998.20;;;19.10
69007;BMP180;56061;51.748;19.620;2022-07-23T00:12:34;98998.20;;;19.08
69007;BMP180;56061;51.748;19.620;2022-07-23T00:15:04;98992.80;;;19.00
69007;BMP180;56061;51.748;19.620;2022-07-23T00:17:32;98994.80;;;19.00
69007;BMP180;56061;51.748;19.620;2022-07-23T00:19:58;98994.40;;;18.90
69007;BMP180;56061;51.748;19.620;2022-07-23T00:22:25;98997.80;;;18.80
69007;BMP180;56061;51.748;19.620;2022-07-23T00:24:53;99002.20;;;18.70
69007;BMP180;56061;51.748;19.620;2022-07-23T00:27:40;99003.00;;;18.70
69007;BMP180;56061;51.748;19.620;2022-07-23T00:30:08;99006.60;;;18.60
69007;BMP180;56061;51.748;19.620;2022-07-23T00:32:58;99009.20;;;18.50
69007;BMP180;56061;51.748;19.620;2022-07-23T00:35:28;99009.60;;;18.48
69007;BMP180;56061;51.748;19.620;2022-07-23T00:37:56;99011.40;;;18.40
69007;BMP180;56061;51.748;19.620;2022-07-23T00:40:24;99014.60;;;18.40
69007;BMP180;56061;51.748;19.620;2022-07-23T00:42:51;99012.60;;;18.46
69007;BMP180;56061;51.748;19.620;2022-07-23T00:45:18;99015.00;;;18.50
69007;BMP180;56061;51.748;19.620;2022-07-23T00:47:45;99014.20;;;18.40
69007;BMP180;56061;51.748;19.620;2022-07-23T00:50:12;99017.20;;;18.40
69007;BMP180;56061;51.748;19.620;2022-07-23T00:52:40;99010.80;;;18.40
69007;BMP180;56061;51.748;19.620;2022-07-23T00:55:09;99008.40;;;18.50
69007;BMP180;56061;51.748;19.620;2022-07-23T00:57:37;99010.60;;;18.50
69007;BMP180;56061;51.748;19.620;2022-07-23T01:00:07;99011.40;;;18.50
69007;BMP180;56061;51.748;19.620;2022-07-23T01:02:34;99011.40;;;18.62
69007;BMP180;56061;51.748;19.620;2022-07-23T01:05:01;99012.40;;;18.70
69007;BMP180;56061;51.748;19.620;2022-07-23T01:07:28;99011.20;;;18.80
69007;BMP180;56061;51.748;19.620;2022-07-23T01:09:55;99001.80;;;18.90
69007;BMP180;56061;51.748;19.620;2022-07-23T01:12:22;99000.40;;;18.90
69007;BMP180;56061;51.748;19.620;2022-07-23T01:14:59;99002.20;;;18.80
69007;BMP180;56061;51.748;19.620;2022-07-23T01:17:26;99005.20;;;18.80
69007;BMP180;56061;51.748;19.620;2022-07-23T01:19:54;99006.00;;;18.80
69007;BMP180;56061;51.748;19.620;2022-07-23T01:22:21;99007.80;;;18.80
69007;BMP180;56061;51.748;19.620;2022-07-23T01:24:49;99005.40;;;18.80
69007;BMP180;56061;51.748;19.620;2022-07-23T01:27:15;99002.00;;;18.76
69007;BMP180;56061;51.748;19.620;2022-07-23T01:29:44;99002.20;;;18.80
69007;BMP180;56061;51.748;19.620;2022-07-23T01:32:11;99006.20;;;18.84
69007;BMP180;56061;51.748;19.620;2022-07-23T01:34:37;99001.60;;;18.90
69007;BMP180;56061;51.748;19.620;2022-07-23T01:37:04;99003.20;;;19.00
69007;BMP180;56061;51.748;19.620;2022-07-23T01:39:30;98998.60;;;19.10
69007;BMP180;56061;51.748;19.620;2022-07-23T01:41:58;98997.00;;;19.14
69007;BMP180;56061;51.748;19.620;2022-07-23T01:44:25;99001.60;;;19.20
69007;BMP180;56061;51.748;19.620;2022-07-23T01:46:52;99004.60;;;19.22
69007;BMP180;56061;51.748;19.620;2022-07-23T01:49:18;99004.00;;;19.24
69007;BMP180;56061;51.748;19.620;2022-07-23T01:51:45;98998.40;;;19.20
69007;BMP180;56061;51.748;19.620;2022-07-23T01:54:33;98995.00;;;19.20
69007;BMP180;56061;51.748;19.620;2022-07-23T01:57:01;98990.80;;;19.10
69007;BMP180;56061;51.748;19.620;2022-07-23T01:59:28;98989.20;;;19.00
69007;BMP180;56061;51.748;19.620;2022-07-23T02:01:54;98986.80;;;19.00
69007;BMP180;56061;51.748;19.620;2022-07-23T02:04:23;98986.00;;;18.90
69007;BMP180;56061;51.748;19.620;2022-07-23T02:06:52;98988.40;;;18.86
69007;BMP180;56061;51.748;19.620;2022-07-23T02:09:19;98990.80;;;18.80
69007;BMP180;56061;51.748;19.620;2022-07-23T02:11:56;98993.80;;;18.80
69007;BMP180;56061;51.748;19.620;2022-07-23T02:14:25;98995.80;;;18.78
69007;BMP180;56061;51.748;19.620;2022-07-23T02:16:52;98995.00;;;18.70
69007;BMP180;56061;51.748;19.620;2022-07-23T02:19:19;98996.00;;;18.70
69007;BMP180;56061;51.748;19.620;2022-07-23T02:21:45;98997.20;;;18.80
69007;BMP180;56061;51.748;19.620;2022-07-23T02:24:12;98992.80;;;18.90
69007;BMP180;56061;51.748;19.620;2022-07-23T02:26:39;98989.80;;;18.84
69007;BMP180;56061;51.748;19.620;2022-07-23T02:29:06;98984.40;;;18.80
69007;BMP180;56061;51.748;19.620;2022-07-23T02:31:33;98993.20;;;18.90
69007;BMP180;56061;51.748;19.620;2022-07-23T02:34:01;98997.00;;;18.90
69007;BMP180;56061;51.748;19.620;2022-07-23T02:36:28;98997.20;;;18.90
69007;BMP180;56061;51.748;19.620;2022-07-23T02:38:55;98993.20;;;18.90
69007;BMP180;56061;51.748;19.620;2022-07-23T02:41:21;98990.40;;;18.80
69007;BMP180;56061;51.748;19.620;2022-07-23T02:43:48;98991.20;;;18.90
69007;BMP180;56061;51.748;19.620;2022-07-23T02:46:15;98990.00;;;18.90
69007;BMP180;56061;51.748;19.620;2022-07-23T02:48:41;98986.60;;;18.80
69007;BMP180;56061;51.748;19.620;2022-07-23T02:51:08;98985.80;;;18.80
69007;BMP180;56061;51.748;19.620;2022-07-23T02:53:40;98980.40;;;18.80
69007;BMP180;56061;51.748;19.620;2022-07-23T02:56:07;98982.00;;;18.80
69007;BMP180;56061;51.748;19.620;2022-07-23T02:58:33;98987.00;;;18.80
69007;BMP180;56061;51.748;19.620;2022-07-23T03:01:00;98994.80;;;18.80
69007;BMP180;56061;51.748;19.620;2022-07-23T03:03:27;98992.80;;;18.80
69007;BMP180;56061;51.748;19.620;2022-07-23T03:05:55;98991.60;;;18.80
69007;BMP180;56061;51.748;19.620;2022-07-23T03:08:22;98986.00;;;18.84
69007;BMP180;56061;51.748;19.620;2022-07-23T03:10:49;98985.60;;;18.82
69007;BMP180;56061;51.748;19.620;2022-07-23T03:13:16;98982.40;;;18.80
69007;BMP180;56061;51.748;19.620;2022-07-23T03:15:43;98984.80;;;18.80
69007;BMP180;56061;51.748;19.620;2022-07-23T03:18:09;98982.40;;;18.76
69007;BMP180;56061;51.748;19.620;2022-07-23T03:20:36;98981.20;;;18.72
69007;BMP180;56061;51.748;19.620;2022-07-23T03:23:02;98982.40;;;18.80
69007;BMP180;56061;51.748;19.620;2022-07-23T03:25:29;98981.60;;;18.80
69007;BMP180;56061;51.748;19.620;2022-07-23T03:27:55;98981.20;;;18.80
69007;BMP180;56061;51.748;19.620;2022-07-23T03:30:22;98978.60;;;18.86
69007;BMP180;56061;51.748;19.620;2022-07-23T03:32:49;98982.60;;;18.90
69007;BMP180;56061;51.748;19.620;2022-07-23T03:35:15;98978.80;;;19.00
69007;BMP180;56061;51.748;19.620;2022-07-23T03:37:42;98976.00;;;19.00
69007;BMP180;56061;51.748;19.620;2022-07-23T03:40:12;98975.60;;;18.90
69007;BMP180;56061;51.748;19.620;2022-07-23T03:42:38;98975.20;;;19.00
69007;BMP180;56061;51.748;19.620;2022-07-23T03:45:08;98973.40;;;18.90
69007;BMP180;56061;51.748;19.620;2022-07-23T03:47:35;98976.00;;;18.90
69007;BMP180;56061;51.748;19.620;2022-07-23T03:50:03;98976.20;;;18.90
69007;BMP180;56061;51.748;19.620;2022-07-23T03:52:29;98976.60;;;18.90
69007;BMP180;56061;51.748;19.620;2022-07-23T03:54:56;98976.60;;;19.00
69007;BMP180;56061;51.748;19.620;2022-07-23T03:57:22;98974.60;;;19.10
69007;BMP180;56061;51.748;19.620;2022-07-23T03:59:49;98978.20;;;19.20
69007;BMP180;56061;51.748;19.620;2022-07-23T04:02:16;98974.80;;;19.20
69007;BMP180;56061;51.748;19.620;2022-07-23T04:04:42;98974.40;;;19.30
69007;BMP180;56061;51.748;19.620;2022-07-23T04:07:09;98978.20;;;19.30
69007;BMP180;56061;51.748;19.620;2022-07-23T04:09:36;98979.20;;;19.30
69007;BMP180;56061;51.748;19.620;2022-07-23T04:12:03;98976.60;;;19.40
69007;BMP180;56061;51.748;19.620;2022-07-23T04:14:29;98981.60;;;19.40
69007;BMP180;56061;51.748;19.620;2022-07-23T04:16:56;98983.20;;;19.48
69007;BMP180;56061;51.748;19.620;2022-07-23T04:19:23;98985.60;;;19.48
69007;BMP180;56061;51.748;19.620;2022-07-23T04:21:49;98978.20;;;19.50
69007;BMP180;56061;51.748;19.620;2022-07-23T04:24:16;98976.20;;;19.60
69007;BMP180;56061;51.748;19.620;2022-07-23T04:26:43;98976.00;;;19.70
69007;BMP180;56061;51.748;19.620;2022-07-23T04:29:10;98972.60;;;19.80
69007;BMP180;56061;51.748;19.620;2022-07-23T04:31:37;98975.00;;;19.90
69007;BMP180;56061;51.748;19.620;2022-07-23T04:34:03;98969.00;;;19.90
69007;BMP180;56061;51.748;19.620;2022-07-23T04:36:30;98965.60;;;19.98
69007;BMP180;56061;51.748;19.620;2022-07-23T04:38:57;98961.60;;;20.10
69007;BMP180;56061;51.748;19.620;2022-07-23T04:41:23;98960.80;;;20.20
69007;BMP180;56061;51.748;19.620;2022-07-23T04:43:50;98960.40;;;20.30
69007;BMP180;56061;51.748;19.620;2022-07-23T04:46:16;98960.40;;;20.40
69007;BMP180;56061;51.748;19.620;2022-07-23T04:48:43;98960.60;;;20.50
69007;BMP180;56061;51.748;19.620;2022-07-23T04:51:10;98955.80;;;20.60
69007;BMP180;56061;51.748;19.620;2022-07-23T04:53:38;98956.60;;;20.70
69007;BMP180;56061;51.748;19.620;2022-07-23T04:56:05;98955.40;;;20.84
69007;BMP180;56061;51.748;19.620;2022-07-23T04:58:31;98957.20;;;20.90
69007;BMP180;56061;51.748;19.620;2022-07-23T05:00:58;98962.20;;;21.00
69007;BMP180;56061;51.748;19.620;2022-07-23T05:03:25;98964.60;;;21.20
69007;BMP180;56061;51.748;19.620;2022-07-23T05:05:51;98959.20;;;21.30
69007;BMP180;56061;51.748;19.620;2022-07-23T05:08:18;98958.00;;;21.44
69007;BMP180;56061;51.748;19.620;2022-07-23T05:10:45;98959.60;;;21.60
69007;BMP180;56061;51.748;19.620;2022-07-23T05:13:15;98956.00;;;21.70
69007;BMP180;56061;51.748;19.620;2022-07-23T05:15:43;98957.80;;;21.80
69007;BMP180;56061;51.748;19.620;2022-07-23T05:18:11;98963.40;;;21.80
69007;BMP180;56061;51.748;19.620;2022-07-23T05:20:38;98964.80;;;21.80
69007;BMP180;56061;51.748;19.620;2022-07-23T05:23:04;98968.80;;;22.00
69007;BMP180;56061;51.748;19.620;2022-07-23T05:25:31;98967.20;;;22.10
69007;BMP180;56061;51.748;19.620;2022-07-23T05:27:58;98964.40;;;22.20
69007;BMP180;56061;51.748;19.620;2022-07-23T05:30:25;98964.80;;;22.38
69007;BMP180;56061;51.748;19.620;2022-07-23T05:32:51;98965.00;;;22.50
69007;BMP180;56061;51.748;19.620;2022-07-23T05:35:18;98963.00;;;22.60
69007;BMP180;56061;51.748;19.620;2022-07-23T05:37:45;98960.80;;;22.70
69007;BMP180;56061;51.748;19.620;2022-07-23T05:40:12;98959.60;;;22.80
69007;BMP180;56061;51.748;19.620;2022-07-23T05:42:40;98953.00;;;22.90
69007;BMP180;56061;51.748;19.620;2022-07-23T05:45:08;98953.20;;;23.00
69007;BMP180;56061;51.748;19.620;2022-07-23T05:47:47;98954.20;;;23.10
69007;BMP180;56061;51.748;19.620;2022-07-23T05:50:15;98951.20;;;23.20
69007;BMP180;56061;51.748;19.620;2022-07-23T05:52:43;98951.40;;;23.30
69007;BMP180;56061;51.748;19.620;2022-07-23T05:55:11;98950.20;;;23.40
69007;BMP180;56061;51.748;19.620;2022-07-23T05:57:40;98948.80;;;23.50
69007;BMP180;56061;51.748;19.620;2022-07-23T06:00:09;98954.00;;;23.60
69007;BMP180;56061;51.748;19.620;2022-07-23T06:02:38;98951.80;;;23.70
69007;BMP180;56061;51.748;19.620;2022-07-23T06:05:07;98947.20;;;23.80
69007;BMP180;56061;51.748;19.620;2022-07-23T06:07:35;98938.60;;;23.82
69007;BMP180;56061;51.748;19.620;2022-07-23T06:10:02;98938.60;;;24.00
69007;BMP180;56061;51.748;19.620;2022-07-23T06:12:29;98937.60;;;24.10
69007;BMP180;56061;51.748;19.620;2022-07-23T06:14:55;98939.80;;;24.20
69007;BMP180;56061;51.748;19.620;2022-07-23T06:17:24;98939.20;;;24.20
69007;BMP180;56061;51.748;19.620;2022-07-23T06:19:53;98933.60;;;24.20
69007;BMP180;56061;51.748;19.620;2022-07-23T06:22:19;98930.00;;;24.32
69007;BMP180;56061;51.748;19.620;2022-07-23T06:24:47;98931.60;;;24.50
69007;BMP180;56061;51.748;19.620;2022-07-23T06:27:14;98933.00;;;24.60
69007;BMP180;56061;51.748;19.620;2022-07-23T06:29:41;98929.20;;;24.60
69007;BMP180;56061;51.748;19.620;2022-07-23T06:32:09;98924.60;;;24.70
69007;BMP180;56061;51.748;19.620;2022-07-23T06:34:35;98922.20;;;24.80
69007;BMP180;56061;51.748;19.620;2022-07-23T06:37:02;98921.20;;;24.80
69007;BMP180;56061;51.748;19.620;2022-07-23T06:39:29;98914.80;;;24.90
69007;BMP180;56061;51.748;19.620;2022-07-23T06:41:56;98918.40;;;25.00
69007;BMP180;56061;51.748;19.620;2022-07-23T06:44:27;98913.60;;;25.04
69007;BMP180;56061;51.748;19.620;2022-07-23T06:46:56;98912.60;;;25.12
69007;BMP180;56061;51.748;19.620;2022-07-23T06:49:23;98916.00;;;25.20
69007;BMP180;56061;51.748;19.620;2022-07-23T06:51:49;98912.20;;;25.30
69007;BMP180;56061;51.748;19.620;2022-07-23T06:54:16;98912.00;;;25.40
69007;BMP180;56061;51.748;19.620;2022-07-23T06:56:43;98913.80;;;25.50
69007;BMP180;56061;51.748;19.620;2022-07-23T06:59:10;98909.80;;;25.58
69007;BMP180;56061;51.748;19.620;2022-07-23T07:01:37;98916.20;;;25.66
69007;BMP180;56061;51.748;19.620;2022-07-23T07:04:03;98908.80;;;25.80
69007;BMP180;56061;51.748;19.620;2022-07-23T07:06:30;98909.60;;;25.82
69007;BMP180;56061;51.748;19.620;2022-07-23T07:08:57;98908.40;;;25.90
69007;BMP180;56061;51.748;19.620;2022-07-23T07:11:24;98910.60;;;26.00
69007;BMP180;56061;51.748;19.620;2022-07-23T07:13:52;98907.00;;;26.10
69007;BMP180;56061;51.748;19.620;2022-07-23T07:16:18;98913.80;;;26.10
69007;BMP180;56061;51.748;19.620;2022-07-23T07:18:45;98912.00;;;26.20
69007;BMP180;56061;51.748;19.620;2022-07-23T07:21:12;98904.40;;;26.30
69007;BMP180;56061;51.748;19.620;2022-07-23T07:23:39;98905.00;;;26.40
69007;BMP180;56061;51.748;19.620;2022-07-23T07:26:05;98902.60;;;26.50
69007;BMP180;56061;51.748;19.620;2022-07-23T07:28:32;98897.60;;;26.60
69007;BMP180;56061;51.748;19.620;2022-07-23T07:30:58;98901.80;;;26.70
69007;BMP180;56061;51.748;19.620;2022-07-23T07:33:25;98903.00;;;26.80
69007;BMP180;56061;51.748;19.620;2022-07-23T07:35:52;98902.80;;;26.90
69007;BMP180;56061;51.748;19.620;2022-07-23T07:38:18;98903.40;;;27.00
69007;BMP180;56061;51.748;19.620;2022-07-23T07:40:45;98901.80;;;27.10
69007;BMP180;56061;51.748;19.620;2022-07-23T07:43:12;98904.60;;;27.20
69007;BMP180;56061;51.748;19.620;2022-07-23T07:45:38;98913.40;;;27.30
69007;BMP180;56061;51.748;19.620;2022-07-23T07:48:05;98918.40;;;27.40
69007;BMP180;56061;51.748;19.620;2022-07-23T07:50:32;98921.00;;;27.50
69007;BMP180;56061;51.748;19.620;2022-07-23T07:53:00;98923.80;;;27.58
69007;BMP180;56061;51.748;19.620;2022-07-23T07:55:27;98922.40;;;27.60
69007;BMP180;56061;51.748;19.620;2022-07-23T07:57:55;98923.00;;;27.70
69007;BMP180;56061;51.748;19.620;2022-07-23T08:00:22;98925.60;;;27.70
69007;BMP180;56061;51.748;19.620;2022-07-23T08:02:51;98929.80;;;27.90
69007;BMP180;56061;51.748;19.620;2022-07-23T08:05:21;98927.60;;;27.92
69007;BMP180;56061;51.748;19.620;2022-07-23T08:07:53;98928.80;;;28.00
69007;BMP180;56061;51.748;19.620;2022-07-23T08:10:20;98931.00;;;28.10
69007;BMP180;56061;51.748;19.620;2022-07-23T08:12:54;98933.40;;;28.20
69007;BMP180;56061;51.748;19.620;2022-07-23T08:15:23;98931.80;;;28.30
69007;BMP180;56061;51.748;19.620;2022-07-23T08:17:51;98925.00;;;28.40
69007;BMP180;56061;51.748;19.620;2022-07-23T08:20:20;98921.80;;;28.42
69007;BMP180;56061;51.748;19.620;2022-07-23T08:22:57;98920.40;;;28.50
69007;BMP180;56061;51.748;19.620;2022-07-23T08:25:32;98914.20;;;28.60
69007;BMP180;56061;51.748;19.620;2022-07-23T08:28:01;98909.40;;;28.60
69007;BMP180;56061;51.748;19.620;2022-07-23T08:30:30;98912.60;;;28.64
69007;BMP180;56061;51.748;19.620;2022-07-23T08:33:07;98911.80;;;28.66
69007;BMP180;56061;51.748;19.620;2022-07-23T08:35:37;98909.00;;;28.60
69007;BMP180;56061;51.748;19.620;2022-07-23T08:38:07;98906.00;;;28.70
69007;BMP180;56061;51.748;19.620;2022-07-23T08:40:38;98902.40;;;28.80
69007;BMP180;56061;51.748;19.620;2022-07-23T08:43:15;98898.80;;;28.80
69007;BMP180;56061;51.748;19.620;2022-07-23T08:45:46;98898.60;;;28.90
69007;BMP180;56061;51.748;19.620;2022-07-23T08:48:24;98892.20;;;29.00
69007;BMP180;56061;51.748;19.620;2022-07-23T08:50:55;98889.80;;;29.10
69007;BMP180;56061;51.748;19.620;2022-07-23T08:53:26;98893.20;;;29.20
69007;BMP180;56061;51.748;19.620;2022-07-23T08:55:57;98893.20;;;29.32
69007;BMP180;56061;51.748;19.620;2022-07-23T08:58:25;98890.00;;;29.40
69007;BMP180;56061;51.748;19.620;2022-07-23T09:00:55;98886.80;;;29.40
69007;BMP180;56061;51.748;19.620;2022-07-23T09:03:32;98885.40;;;29.50
69007;BMP180;56061;51.748;19.620;2022-07-23T09:06:00;98887.60;;;29.48
69007;BMP180;56061;51.748;19.620;2022-07-23T09:08:41;98885.40;;;29.40
69007;BMP180;56061;51.748;19.620;2022-07-23T09:11:12;98876.80;;;29.40
69007;BMP180;56061;51.748;19.620;2022-07-23T09:13:53;98872.00;;;29.40
69007;BMP180;56061;51.748;19.620;2022-07-23T09:16:28;98865.60;;;29.48
69007;BMP180;56061;51.748;19.620;2022-07-23T09:19:05;98864.80;;;29.50
69007;BMP180;56061;51.748;19.620;2022-07-23T09:21:37;98863.40;;;29.60
69007;BMP180;56061;51.748;19.620;2022-07-23T09:24:09;98864.20;;;29.60
69007;BMP180;56061;51.748;19.620;2022-07-23T09:26:48;98862.40;;;29.70
69007;BMP180;56061;51.748;19.620;2022-07-23T09:29:22;98859.60;;;29.80
69007;BMP180;56061;51.748;19.620;2022-07-23T09:31:52;98858.40;;;29.70
69007;BMP180;56061;51.748;19.620;2022-07-23T09:34:23;98859.60;;;29.80
69007;BMP180;56061;51.748;19.620;2022-07-23T09:36:54;98858.40;;;29.90
69007;BMP180;56061;51.748;19.620;2022-07-23T09:39:29;98857.20;;;29.90
69007;BMP180;56061;51.748;19.620;2022-07-23T09:41:58;98853.40;;;29.90
69007;BMP180;56061;51.748;19.620;2022-07-23T09:44:26;98854.00;;;30.00
69007;BMP180;56061;51.748;19.620;2022-07-23T09:47:00;98850.60;;;30.10
69007;BMP180;56061;51.748;19.620;2022-07-23T09:49:27;98846.20;;;30.20
69007;BMP180;56061;51.748;19.620;2022-07-23T09:51:59;98840.60;;;30.30
69007;BMP180;56061;51.748;19.620;2022-07-23T09:54:39;98838.80;;;30.30
69007;BMP180;56061;51.748;19.620;2022-07-23T09:57:10;98834.80;;;30.48
69007;BMP180;56061;51.748;19.620;2022-07-23T09:59:44;98831.40;;;30.54
69007;BMP180;56061;51.748;19.620;2022-07-23T10:02:13;98834.20;;;30.60
69007;BMP180;56061;51.748;19.620;2022-07-23T10:04:41;98841.80;;;30.70
69007;BMP180;56061;51.748;19.620;2022-07-23T10:07:09;98835.20;;;30.70
69007;BMP180;56061;51.748;19.620;2022-07-23T10:09:40;98834.40;;;30.80
69007;BMP180;56061;51.748;19.620;2022-07-23T10:12:13;98825.40;;;30.90
69007;BMP180;56061;51.748;19.620;2022-07-23T10:14:45;98833.80;;;31.00
69007;BMP180;56061;51.748;19.620;2022-07-23T10:17:12;98829.80;;;31.20
69007;BMP180;56061;51.748;19.620;2022-07-23T10:19:40;98826.60;;;31.40
69007;BMP180;56061;51.748;19.620;2022-07-23T10:22:36;98817.80;;;31.60
69007;BMP180;56061;51.748;19.620;2022-07-23T10:28:46;98816.80;;;31.94
69007;BMP180;56061;51.748;19.620;2022-07-23T10:31:38;98819.80;;;32.10
69007;BMP180;56061;51.748;19.620;2022-07-23T10:37:45;98803.60;;;32.68
69007;BMP180;56061;51.748;19.620;2022-07-23T10:40:20;98800.60;;;33.02
69007;BMP180;56061;51.748;19.620;2022-07-23T10:42:51;98803.40;;;33.40
69007;BMP180;56061;51.748;19.620;2022-07-23T10:45:35;98807.00;;;33.70
69007;BMP180;56061;51.748;19.620;2022-07-23T10:48:19;98808.60;;;33.70
69007;BMP180;56061;51.748;19.620;2022-07-23T10:51:15;98803.20;;;33.62
69007;BMP180;56061;51.748;19.620;2022-07-23T10:54:02;98805.00;;;33.40
69007;BMP180;56061;51.748;19.620;2022-07-23T10:59:17;98799.40;;;33.30
69007;BMP180;56061;51.748;19.620;2022-07-23T11:01:44;98792.00;;;33.30
69007;BMP180;56061;51.748;19.620;2022-07-23T11:04:11;98789.00;;;33.40
69007;BMP180;56061;51.748;19.620;2022-07-23T11:09:28;98784.40;;;33.46
69007;BMP180;56061;51.748;19.620;2022-07-23T11:14:58;98781.00;;;33.66
69007;BMP180;56061;51.748;19.620;2022-07-23T11:17:26;98777.20;;;33.78
69007;BMP180;56061;51.748;19.620;2022-07-23T11:22:47;98772.80;;;33.80
69007;BMP180;56061;51.748;19.620;2022-07-23T11:27:55;98772.40;;;33.90
69007;BMP180;56061;51.748;19.620;2022-07-23T11:30:40;98768.00;;;34.00
69007;BMP180;56061;51.748;19.620;2022-07-23T11:35:40;98756.60;;;34.10
69007;BMP180;56061;51.748;19.620;2022-07-23T11:38:21;98756.00;;;34.20
69007;BMP180;56061;51.748;19.620;2022-07-23T11:40:55;98751.40;;;34.30
69007;BMP180;56061;51.748;19.620;2022-07-23T11:43:25;98749.40;;;34.40
69007;BMP180;56061;51.748;19.620;2022-07-23T11:45:58;98746.20;;;34.50
69007;BMP180;56061;51.748;19.620;2022-07-23T11:48:29;98749.60;;;34.50
69007;BMP180;56061;51.748;19.620;2022-07-23T11:50:57;98736.80;;;34.40
69007;BMP180;56061;51.748;19.620;2022-07-23T11:53:33;98734.00;;;34.32
69007;BMP180;56061;51.748;19.620;2022-07-23T11:56:08;98730.40;;;34.30
69007;BMP180;56061;51.748;19.620;2022-07-23T11:58:38;98725.80;;;34.26
69007;BMP180;56061;51.748;19.620;2022-07-23T12:01:05;98719.00;;;34.30
69007;BMP180;56061;51.748;19.620;2022-07-23T12:03:50;98713.40;;;34.30
69007;BMP180;56061;51.748;19.620;2022-07-23T12:06:17;98713.80;;;34.30
69007;BMP180;56061;51.748;19.620;2022-07-23T12:08:44;98704.40;;;34.36
69007;BMP180;56061;51.748;19.620;2022-07-23T12:11:12;98700.40;;;34.50
69007;BMP180;56061;51.748;19.620;2022-07-23T12:13:39;98691.80;;;34.60
69007;BMP180;56061;51.748;19.620;2022-07-23T12:16:07;98692.60;;;34.64
69007;BMP180;56061;51.748;19.620;2022-07-23T12:18:34;98691.20;;;34.80
69007;BMP180;56061;51.748;19.620;2022-07-23T12:21:04;98689.40;;;34.90
69007;BMP180;56061;51.748;19.620;2022-07-23T12:23:33;98688.00;;;35.10
69007;BMP180;56061;51.748;19.620;2022-07-23T12:26:02;98684.80;;;35.30
69007;BMP180;56061;51.748;19.620;2022-07-23T12:28:33;98686.00;;;35.40
69007;BMP180;56061;51.748;19.620;2022-07-23T12:31:00;98683.80;;;35.52
69007;BMP180;56061;51.748;19.620;2022-07-23T12:33:40;98689.40;;;35.52
69007;BMP180;56061;51.748;19.620;2022-07-23T12:36:08;98699.20;;;35.40
69007;BMP180;56061;51.748;19.620;2022-07-23T12:38:39;98698.20;;;35.12
69007;BMP180;56061;51.748;19.620;2022-07-23T12:41:06;98690.40;;;34.90
69007;BMP180;56061;51.748;19.620;2022-07-23T12:43:38;98691.20;;;34.64
69007;BMP180;56061;51.748;19.620;2022-07-23T12:46:12;98689.20;;;34.40
69007;BMP180;56061;51.748;19.620;2022-07-23T12:51:24;98690.40;;;33.88
69007;BMP180;56061;51.748;19.620;2022-07-23T12:54:08;98686.20;;;33.60
69007;BMP180;56061;51.748;19.620;2022-07-23T12:56:44;98690.60;;;33.20
69007;BMP180;56061;51.748;19.620;2022-07-23T12:59:15;98689.20;;;32.80
69007;BMP180;56061;51.748;19.620;2022-07-23T13:01:54;98689.60;;;32.48
69007;BMP180;56061;51.748;19.620;2022-07-23T13:04:24;98689.20;;;32.20
69007;BMP180;56061;51.748;19.620;2022-07-23T13:06:59;98708.80;;;31.90
69007;BMP180;56061;51.748;19.620;2022-07-23T13:09:33;98794.40;;;31.58
69007;BMP180;56061;51.748;19.620;2022-07-23T13:12:08;98800.00;;;30.00
69007;BMP180;56061;51.748;19.620;2022-07-23T13:14:37;98843.40;;;27.40
69007;BMP180;56061;51.748;19.620;2022-07-23T13:17:04;98865.80;;;25.30
69007;BMP180;56061;51.748;19.620;2022-07-23T13:19:32;98839.80;;;23.76
69007;BMP180;56061;51.748;19.620;2022-07-23T13:22:00;98853.60;;;22.72
69007;BMP180;56061;51.748;19.620;2022-07-23T13:24:34;98869.80;;;22.02
69007;BMP180;56061;51.748;19.620;2022-07-23T13:27:04;98867.60;;;21.54
69007;BMP180;56061;51.748;19.620;2022-07-23T13:29:32;98875.60;;;21.22
69007;BMP180;56061;51.748;19.620;2022-07-23T13:31:58;98894.00;;;20.92
69007;BMP180;56061;51.748;19.620;2022-07-23T13:34:25;98896.20;;;20.66
69007;BMP180;56061;51.748;19.620;2022-07-23T13:36:52;98908.00;;;20.44
69007;BMP180;56061;51.748;19.620;2022-07-23T13:39:19;98918.40;;;20.30
69007;BMP180;56061;51.748;19.620;2022-07-23T13:41:46;98927.80;;;20.12
69007;BMP180;56061;51.748;19.620;2022-07-23T13:44:17;98946.60;;;20.08
69007;BMP180;56061;51.748;19.620;2022-07-23T13:46:46;98963.40;;;19.90
69007;BMP180;56061;51.748;19.620;2022-07-23T13:49:13;98988.80;;;19.80
69007;BMP180;56061;51.748;19.620;2022-07-23T13:51:41;99016.80;;;19.70
69007;BMP180;56061;51.748;19.620;2022-07-23T13:54:08;99028.20;;;19.58
69007;BMP180;56061;51.748;19.620;2022-07-23T13:56:35;99020.40;;;19.40
69007;BMP180;56061;51.748;19.620;2022-07-23T13:59:02;99022.00;;;19.30
69007;BMP180;56061;51.748;19.620;2022-07-23T14:01:32;99013.20;;;19.20
69007;BMP180;56061;51.748;19.620;2022-07-23T14:04:11;99012.40;;;19.20
69007;BMP180;56061;51.748;19.620;2022-07-23T14:06:38;99009.60;;;19.02
69007;BMP180;56061;51.748;19.620;2022-07-23T14:09:04;99003.20;;;19.00
69007;BMP180;56061;51.748;19.620;2022-07-23T14:11:34;98999.00;;;18.92
69007;BMP180;56061;51.748;19.620;2022-07-23T14:14:02;98990.80;;;18.90
69007;BMP180;56061;51.748;19.620;2022-07-23T14:16:28;98972.80;;;18.80
69007;BMP180;56061;51.748;19.620;2022-07-23T14:18:55;98980.60;;;18.80
69007;BMP180;56061;51.748;19.620;2022-07-23T14:21:22;98985.00;;;18.80
69007;BMP180;56061;51.748;19.620;2022-07-23T14:23:49;98988.00;;;18.80
69007;BMP180;56061;51.748;19.620;2022-07-23T14:26:16;98993.00;;;18.80
69007;BMP180;56061;51.748;19.620;2022-07-23T14:28:43;98997.20;;;18.80
69007;BMP180;56061;51.748;19.620;2022-07-23T14:31:14;99004.60;;;18.80
69007;BMP180;56061;51.748;19.620;2022-07-23T14:33:48;99005.80;;;18.80